<?xml version="1.0" encoding="UTF-8" standalone="no" ?>
<gpx xmlns="http://www.topografix.com/GPX/1/1" xmlns:xsi="http://www.w3.org/2001/XMLSchema-instance" xsi:schemaLocation="http://www.topografix.com/GPX/1/1 http://www.topografix.com/GPX/1/1/gpx.xsd" version="1.1" creator="VisuGPX - https://www.visugpx.com">
  <metadata>
    <name>singles_baou_rouge_33km</name>
  </metadata>
  <trk>
    <name><![CDATA[15591567-Singles Baou Rouge 33km]]></name>
    <extensions>
      <line xmlns="http://www.topografix.com/GPX/gpx_style/0/2">
        <color>0000FF</color>
        <width>4</width>
      </line>
    </extensions>
    <trkseg>
      <trkpt lat="43.49052" lon="6.71168">
        <ele>71</ele>
        <time>2022-10-22T10:04:10Z</time>
      </trkpt>
      <trkpt lat="43.49032" lon="6.71136">
        <ele>70</ele>
        <time>2022-10-22T10:04:17Z</time>
      </trkpt>
      <trkpt lat="43.48993" lon="6.71161">
        <ele>73</ele>
        <time>2022-10-22T10:04:27Z</time>
      </trkpt>
      <trkpt lat="43.48983" lon="6.71215">
        <ele>76</ele>
        <time>2022-10-22T10:04:37Z</time>
      </trkpt>
      <trkpt lat="43.4895" lon="6.71256">
        <ele>80</ele>
        <time>2022-10-22T10:04:47Z</time>
      </trkpt>
      <trkpt lat="43.48868" lon="6.71347">
        <ele>82</ele>
        <time>2022-10-22T10:05:12Z</time>
      </trkpt>
      <trkpt lat="43.48807" lon="6.71403">
        <ele>82</ele>
        <time>2022-10-22T10:05:29Z</time>
      </trkpt>
      <trkpt lat="43.48809" lon="6.71318">
        <ele>82</ele>
        <time>2022-10-22T10:05:43Z</time>
      </trkpt>
      <trkpt lat="43.4882" lon="6.71163">
        <ele>79</ele>
        <time>2022-10-22T10:06:10Z</time>
      </trkpt>
      <trkpt lat="43.48774" lon="6.71118">
        <ele>74</ele>
        <time>2022-10-22T10:06:23Z</time>
      </trkpt>
      <trkpt lat="43.48737" lon="6.71109">
        <ele>72</ele>
        <time>2022-10-22T10:06:31Z</time>
      </trkpt>
      <trkpt lat="43.48701" lon="6.71075">
        <ele>66</ele>
        <time>2022-10-22T10:06:42Z</time>
      </trkpt>
      <trkpt lat="43.48689" lon="6.71019">
        <ele>63</ele>
        <time>2022-10-22T10:06:52Z</time>
      </trkpt>
      <trkpt lat="43.48675" lon="6.71002">
        <ele>61</ele>
        <time>2022-10-22T10:06:56Z</time>
      </trkpt>
      <trkpt lat="43.48667" lon="6.70954">
        <ele>59</ele>
        <time>2022-10-22T10:07:04Z</time>
      </trkpt>
      <trkpt lat="43.48637" lon="6.7088">
        <ele>56</ele>
        <time>2022-10-22T10:07:19Z</time>
      </trkpt>
      <trkpt lat="43.4864" lon="6.70826">
        <ele>55</ele>
        <time>2022-10-22T10:07:28Z</time>
      </trkpt>
      <trkpt lat="43.48646" lon="6.7075">
        <ele>54</ele>
        <time>2022-10-22T10:07:41Z</time>
      </trkpt>
      <trkpt lat="43.48596" lon="6.70714">
        <ele>52</ele>
        <time>2022-10-22T10:07:54Z</time>
      </trkpt>
      <trkpt lat="43.48531" lon="6.70641">
        <ele>47</ele>
        <time>2022-10-22T10:08:13Z</time>
      </trkpt>
      <trkpt lat="43.48511" lon="6.70638">
        <ele>46</ele>
        <time>2022-10-22T10:08:18Z</time>
      </trkpt>
      <trkpt lat="43.48502" lon="6.70581">
        <ele>44</ele>
        <time>2022-10-22T10:08:28Z</time>
      </trkpt>
      <trkpt lat="43.48538" lon="6.70469">
        <ele>45</ele>
        <time>2022-10-22T10:08:49Z</time>
      </trkpt>
      <trkpt lat="43.48578" lon="6.70412">
        <ele>43</ele>
        <time>2022-10-22T10:09:02Z</time>
      </trkpt>
      <trkpt lat="43.4857" lon="6.70395">
        <ele>44</ele>
        <time>2022-10-22T10:09:06Z</time>
      </trkpt>
      <trkpt lat="43.48511" lon="6.70421">
        <ele>46</ele>
        <time>2022-10-22T10:09:20Z</time>
      </trkpt>
      <trkpt lat="43.4854" lon="6.70377">
        <ele>46</ele>
        <time>2022-10-22T10:09:30Z</time>
      </trkpt>
      <trkpt lat="43.48556" lon="6.70296">
        <ele>47</ele>
        <time>2022-10-22T10:09:44Z</time>
      </trkpt>
      <trkpt lat="43.48544" lon="6.70188">
        <ele>50</ele>
        <time>2022-10-22T10:10:03Z</time>
      </trkpt>
      <trkpt lat="43.48478" lon="6.70154">
        <ele>51</ele>
        <time>2022-10-22T10:10:19Z</time>
      </trkpt>
      <trkpt lat="43.48343" lon="6.701">
        <ele>47</ele>
        <time>2022-10-22T10:10:52Z</time>
      </trkpt>
      <trkpt lat="43.48336" lon="6.70062">
        <ele>48</ele>
        <time>2022-10-22T10:10:59Z</time>
      </trkpt>
      <trkpt lat="43.48356" lon="6.69991">
        <ele>50</ele>
        <time>2022-10-22T10:11:12Z</time>
      </trkpt>
      <trkpt lat="43.48382" lon="6.69733">
        <ele>60</ele>
        <time>2022-10-22T10:11:56Z</time>
      </trkpt>
      <trkpt lat="43.48375" lon="6.69664">
        <ele>60</ele>
        <time>2022-10-22T10:12:08Z</time>
      </trkpt>
      <trkpt lat="43.48263" lon="6.69769">
        <ele>60</ele>
        <time>2022-10-22T10:12:39Z</time>
      </trkpt>
      <trkpt lat="43.48131" lon="6.69857">
        <ele>67</ele>
        <time>2022-10-22T10:13:14Z</time>
      </trkpt>
      <trkpt lat="43.4805" lon="6.69829">
        <ele>69</ele>
        <time>2022-10-22T10:13:33Z</time>
      </trkpt>
      <trkpt lat="43.479" lon="6.69913">
        <ele>65</ele>
        <time>2022-10-22T10:14:11Z</time>
      </trkpt>
      <trkpt lat="43.47782" lon="6.69784">
        <ele>56</ele>
        <time>2022-10-22T10:14:46Z</time>
      </trkpt>
      <trkpt lat="43.47732" lon="6.69831">
        <ele>52</ele>
        <time>2022-10-22T10:15:00Z</time>
      </trkpt>
      <trkpt lat="43.47773" lon="6.70095">
        <ele>50</ele>
        <time>2022-10-22T10:15:46Z</time>
      </trkpt>
      <trkpt lat="43.47684" lon="6.70166">
        <ele>47</ele>
        <time>2022-10-22T10:16:10Z</time>
      </trkpt>
      <trkpt lat="43.47651" lon="6.70057">
        <ele>46</ele>
        <time>2022-10-22T10:16:30Z</time>
      </trkpt>
      <trkpt lat="43.47556" lon="6.70082">
        <ele>43</ele>
        <time>2022-10-22T10:16:53Z</time>
      </trkpt>
      <trkpt lat="43.47463" lon="6.70035">
        <ele>40</ele>
        <time>2022-10-22T10:17:16Z</time>
      </trkpt>
      <trkpt lat="43.47486" lon="6.69874">
        <ele>36</ele>
        <time>2022-10-22T10:17:44Z</time>
      </trkpt>
      <trkpt lat="43.4755" lon="6.69808">
        <ele>32</ele>
        <time>2022-10-22T10:18:02Z</time>
      </trkpt>
      <trkpt lat="43.47466" lon="6.69745">
        <ele>27</ele>
        <time>2022-10-22T10:18:25Z</time>
      </trkpt>
      <trkpt lat="43.4733" lon="6.69673">
        <ele>31</ele>
        <time>2022-10-22T10:18:59Z</time>
      </trkpt>
      <trkpt lat="43.47366" lon="6.69636">
        <ele>34</ele>
        <time>2022-10-22T10:19:09Z</time>
      </trkpt>
      <trkpt lat="43.47286" lon="6.69599">
        <ele>39</ele>
        <time>2022-10-22T10:19:29Z</time>
      </trkpt>
      <trkpt lat="43.47318" lon="6.69528">
        <ele>40</ele>
        <time>2022-10-22T10:19:43Z</time>
      </trkpt>
      <trkpt lat="43.47346" lon="6.69521">
        <ele>41</ele>
        <time>2022-10-22T10:19:50Z</time>
      </trkpt>
      <trkpt lat="43.47373" lon="6.69455">
        <ele>41</ele>
        <time>2022-10-22T10:20:02Z</time>
      </trkpt>
      <trkpt lat="43.47372" lon="6.69396">
        <ele>42</ele>
        <time>2022-10-22T10:20:12Z</time>
      </trkpt>
      <trkpt lat="43.47392" lon="6.69271">
        <ele>46</ele>
        <time>2022-10-22T10:20:34Z</time>
      </trkpt>
      <trkpt lat="43.47426" lon="6.69306">
        <ele>47</ele>
        <time>2022-10-22T10:20:44Z</time>
      </trkpt>
      <trkpt lat="43.47482" lon="6.69315">
        <ele>49</ele>
        <time>2022-10-22T10:20:57Z</time>
      </trkpt>
      <trkpt lat="43.47537" lon="6.69318">
        <ele>50</ele>
        <time>2022-10-22T10:21:10Z</time>
      </trkpt>
      <trkpt lat="43.476" lon="6.69309">
        <ele>51</ele>
        <time>2022-10-22T10:21:25Z</time>
      </trkpt>
      <trkpt lat="43.47682" lon="6.69351">
        <ele>49</ele>
        <time>2022-10-22T10:21:45Z</time>
      </trkpt>
      <trkpt lat="43.47775" lon="6.69336">
        <ele>50</ele>
        <time>2022-10-22T10:22:07Z</time>
      </trkpt>
      <trkpt lat="43.47824" lon="6.69317">
        <ele>51</ele>
        <time>2022-10-22T10:22:19Z</time>
      </trkpt>
      <trkpt lat="43.47885" lon="6.6935">
        <ele>50</ele>
        <time>2022-10-22T10:22:34Z</time>
      </trkpt>
      <trkpt lat="43.47942" lon="6.69263">
        <ele>57</ele>
        <time>2022-10-22T10:22:54Z</time>
      </trkpt>
      <trkpt lat="43.48011" lon="6.69165">
        <ele>62</ele>
        <time>2022-10-22T10:23:17Z</time>
      </trkpt>
      <trkpt lat="43.47967" lon="6.69101">
        <ele>65</ele>
        <time>2022-10-22T10:23:32Z</time>
      </trkpt>
      <trkpt lat="43.47987" lon="6.69025">
        <ele>65</ele>
        <time>2022-10-22T10:23:46Z</time>
      </trkpt>
      <trkpt lat="43.48009" lon="6.68994">
        <ele>64</ele>
        <time>2022-10-22T10:23:53Z</time>
      </trkpt>
      <trkpt lat="43.4804" lon="6.68857">
        <ele>62</ele>
        <time>2022-10-22T10:24:18Z</time>
      </trkpt>
      <trkpt lat="43.48132" lon="6.68722">
        <ele>62</ele>
        <time>2022-10-22T10:24:49Z</time>
      </trkpt>
      <trkpt lat="43.48195" lon="6.68752">
        <ele>63</ele>
        <time>2022-10-22T10:25:05Z</time>
      </trkpt>
      <trkpt lat="43.48243" lon="6.6851">
        <ele>69</ele>
        <time>2022-10-22T10:25:47Z</time>
      </trkpt>
      <trkpt lat="43.48246" lon="6.68211">
        <ele>60</ele>
        <time>2022-10-22T10:26:38Z</time>
      </trkpt>
      <trkpt lat="43.4809" lon="6.68267">
        <ele>54</ele>
        <time>2022-10-22T10:27:15Z</time>
      </trkpt>
      <trkpt lat="43.47941" lon="6.68175">
        <ele>46</ele>
        <time>2022-10-22T10:27:54Z</time>
      </trkpt>
      <trkpt lat="43.47949" lon="6.681">
        <ele>46</ele>
        <time>2022-10-22T10:28:06Z</time>
      </trkpt>
      <trkpt lat="43.47866" lon="6.68059">
        <ele>45</ele>
        <time>2022-10-22T10:28:27Z</time>
      </trkpt>
      <trkpt lat="43.47879" lon="6.67872">
        <ele>51</ele>
        <time>2022-10-22T10:28:59Z</time>
      </trkpt>
      <trkpt lat="43.47894" lon="6.67739">
        <ele>58</ele>
        <time>2022-10-22T10:29:22Z</time>
      </trkpt>
      <trkpt lat="43.4783" lon="6.67701">
        <ele>58</ele>
        <time>2022-10-22T10:29:38Z</time>
      </trkpt>
      <trkpt lat="43.47829" lon="6.67501">
        <ele>60</ele>
        <time>2022-10-22T10:30:12Z</time>
      </trkpt>
      <trkpt lat="43.48053" lon="6.67424">
        <ele>71</ele>
        <time>2022-10-22T10:31:06Z</time>
      </trkpt>
      <trkpt lat="43.48139" lon="6.67404">
        <ele>71</ele>
        <time>2022-10-22T10:31:26Z</time>
      </trkpt>
      <trkpt lat="43.48118" lon="6.67338">
        <ele>71</ele>
        <time>2022-10-22T10:31:38Z</time>
      </trkpt>
      <trkpt lat="43.48118" lon="6.67055">
        <ele>61</ele>
        <time>2022-10-22T10:32:26Z</time>
      </trkpt>
      <trkpt lat="43.47977" lon="6.66731">
        <ele>53</ele>
        <time>2022-10-22T10:33:30Z</time>
      </trkpt>
      <trkpt lat="43.47931" lon="6.66589">
        <ele>54</ele>
        <time>2022-10-22T10:33:57Z</time>
      </trkpt>
      <trkpt lat="43.47994" lon="6.66561">
        <ele>55</ele>
        <time>2022-10-22T10:34:12Z</time>
      </trkpt>
      <trkpt lat="43.48042" lon="6.66563">
        <ele>58</ele>
        <time>2022-10-22T10:34:23Z</time>
      </trkpt>
      <trkpt lat="43.48196" lon="6.66561">
        <ele>62</ele>
        <time>2022-10-22T10:34:59Z</time>
      </trkpt>
      <trkpt lat="43.48273" lon="6.6662">
        <ele>62</ele>
        <time>2022-10-22T10:35:20Z</time>
      </trkpt>
      <trkpt lat="43.48305" lon="6.66542">
        <ele>60</ele>
        <time>2022-10-22T10:35:35Z</time>
      </trkpt>
      <trkpt lat="43.48259" lon="6.66442">
        <ele>58</ele>
        <time>2022-10-22T10:35:55Z</time>
      </trkpt>
      <trkpt lat="43.48301" lon="6.66427">
        <ele>55</ele>
        <time>2022-10-22T10:36:05Z</time>
      </trkpt>
      <trkpt lat="43.48335" lon="6.66445">
        <ele>55</ele>
        <time>2022-10-22T10:36:14Z</time>
      </trkpt>
      <trkpt lat="43.48432" lon="6.66523">
        <ele>59</ele>
        <time>2022-10-22T10:36:40Z</time>
      </trkpt>
      <trkpt lat="43.48441" lon="6.66696">
        <ele>64</ele>
        <time>2022-10-22T10:37:09Z</time>
      </trkpt>
      <trkpt lat="43.48643" lon="6.66832">
        <ele>72</ele>
        <time>2022-10-22T10:38:02Z</time>
      </trkpt>
      <trkpt lat="43.48693" lon="6.66833">
        <ele>73</ele>
        <time>2022-10-22T10:38:13Z</time>
      </trkpt>
      <trkpt lat="43.48725" lon="6.66835">
        <ele>75</ele>
        <time>2022-10-22T10:38:21Z</time>
      </trkpt>
      <trkpt lat="43.48754" lon="6.66827">
        <ele>76</ele>
        <time>2022-10-22T10:38:28Z</time>
      </trkpt>
      <trkpt lat="43.48775" lon="6.66876">
        <ele>77</ele>
        <time>2022-10-22T10:38:38Z</time>
      </trkpt>
      <trkpt lat="43.48806" lon="6.66909">
        <ele>78</ele>
        <time>2022-10-22T10:38:47Z</time>
      </trkpt>
      <trkpt lat="43.48814" lon="6.66733">
        <ele>78</ele>
        <time>2022-10-22T10:39:17Z</time>
      </trkpt>
      <trkpt lat="43.48793" lon="6.66683">
        <ele>78</ele>
        <time>2022-10-22T10:39:26Z</time>
      </trkpt>
      <trkpt lat="43.48758" lon="6.66644">
        <ele>76</ele>
        <time>2022-10-22T10:39:37Z</time>
      </trkpt>
      <trkpt lat="43.48676" lon="6.66467">
        <ele>68</ele>
        <time>2022-10-22T10:40:12Z</time>
      </trkpt>
      <trkpt lat="43.48609" lon="6.66447">
        <ele>61</ele>
        <time>2022-10-22T10:40:28Z</time>
      </trkpt>
      <trkpt lat="43.4858" lon="6.6636">
        <ele>57</ele>
        <time>2022-10-22T10:40:45Z</time>
      </trkpt>
      <trkpt lat="43.48592" lon="6.6628">
        <ele>58</ele>
        <time>2022-10-22T10:40:59Z</time>
      </trkpt>
      <trkpt lat="43.48659" lon="6.66179">
        <ele>61</ele>
        <time>2022-10-22T10:41:22Z</time>
      </trkpt>
      <trkpt lat="43.48739" lon="6.66156">
        <ele>65</ele>
        <time>2022-10-22T10:41:41Z</time>
      </trkpt>
      <trkpt lat="43.48861" lon="6.66278">
        <ele>68</ele>
        <time>2022-10-22T10:42:16Z</time>
      </trkpt>
      <trkpt lat="43.48883" lon="6.66317">
        <ele>69</ele>
        <time>2022-10-22T10:42:24Z</time>
      </trkpt>
      <trkpt lat="43.48914" lon="6.66284">
        <ele>66</ele>
        <time>2022-10-22T10:42:33Z</time>
      </trkpt>
      <trkpt lat="43.48961" lon="6.66362">
        <ele>65</ele>
        <time>2022-10-22T10:42:51Z</time>
      </trkpt>
      <trkpt lat="43.49077" lon="6.6631">
        <ele>64</ele>
        <time>2022-10-22T10:43:19Z</time>
      </trkpt>
      <trkpt lat="43.49107" lon="6.66381">
        <ele>65</ele>
        <time>2022-10-22T10:43:33Z</time>
      </trkpt>
      <trkpt lat="43.49069" lon="6.66421">
        <ele>63</ele>
        <time>2022-10-22T10:43:44Z</time>
      </trkpt>
      <trkpt lat="43.4908" lon="6.66456">
        <ele>64</ele>
        <time>2022-10-22T10:43:51Z</time>
      </trkpt>
      <trkpt lat="43.49108" lon="6.66611">
        <ele>68</ele>
        <time>2022-10-22T10:44:18Z</time>
      </trkpt>
      <trkpt lat="43.49253" lon="6.66705">
        <ele>76</ele>
        <time>2022-10-22T10:44:55Z</time>
      </trkpt>
      <trkpt lat="43.49406" lon="6.66724">
        <ele>83</ele>
        <time>2022-10-22T10:45:31Z</time>
      </trkpt>
      <trkpt lat="43.49448" lon="6.66516">
        <ele>82</ele>
        <time>2022-10-22T10:46:08Z</time>
      </trkpt>
      <trkpt lat="43.49582" lon="6.66617">
        <ele>82</ele>
        <time>2022-10-22T10:46:43Z</time>
      </trkpt>
      <trkpt lat="43.49611" lon="6.6672">
        <ele>79</ele>
        <time>2022-10-22T10:47:02Z</time>
      </trkpt>
      <trkpt lat="43.49742" lon="6.66533">
        <ele>61</ele>
        <time>2022-10-22T10:47:46Z</time>
      </trkpt>
      <trkpt lat="43.49874" lon="6.66484">
        <ele>59</ele>
        <time>2022-10-22T10:48:18Z</time>
      </trkpt>
      <trkpt lat="43.49904" lon="6.66626">
        <ele>64</ele>
        <time>2022-10-22T10:48:43Z</time>
      </trkpt>
      <trkpt lat="43.49804" lon="6.66896">
        <ele>72</ele>
        <time>2022-10-22T10:49:34Z</time>
      </trkpt>
      <trkpt lat="43.49812" lon="6.67029">
        <ele>78</ele>
        <time>2022-10-22T10:49:57Z</time>
      </trkpt>
      <trkpt lat="43.49731" lon="6.67057">
        <ele>83</ele>
        <time>2022-10-22T10:50:17Z</time>
      </trkpt>
      <trkpt lat="43.49801" lon="6.67271">
        <ele>82</ele>
        <time>2022-10-22T10:50:56Z</time>
      </trkpt>
      <trkpt lat="43.50215" lon="6.66293">
        <ele>69</ele>
        <time>2022-10-22T10:54:08Z</time>
      </trkpt>
      <trkpt lat="43.50383" lon="6.65872">
        <ele>71</ele>
        <time>2022-10-22T10:55:29Z</time>
      </trkpt>
      <trkpt lat="43.50424" lon="6.65776">
        <ele>74</ele>
        <time>2022-10-22T10:55:48Z</time>
      </trkpt>
      <trkpt lat="43.50401" lon="6.65708">
        <ele>70</ele>
        <time>2022-10-22T10:56:01Z</time>
      </trkpt>
      <trkpt lat="43.50382" lon="6.65589">
        <ele>63</ele>
        <time>2022-10-22T10:56:22Z</time>
      </trkpt>
      <trkpt lat="43.50448" lon="6.65527">
        <ele>63</ele>
        <time>2022-10-22T10:56:40Z</time>
      </trkpt>
      <trkpt lat="43.50514" lon="6.65469">
        <ele>67</ele>
        <time>2022-10-22T10:56:59Z</time>
      </trkpt>
      <trkpt lat="43.50558" lon="6.65417">
        <ele>68</ele>
        <time>2022-10-22T10:57:12Z</time>
      </trkpt>
      <trkpt lat="43.50628" lon="6.65312">
        <ele>71</ele>
        <time>2022-10-22T10:57:36Z</time>
      </trkpt>
      <trkpt lat="43.50803" lon="6.65484">
        <ele>77</ele>
        <time>2022-10-22T10:58:27Z</time>
      </trkpt>
      <trkpt lat="43.50845" lon="6.6545">
        <ele>78</ele>
        <time>2022-10-22T10:58:38Z</time>
      </trkpt>
      <trkpt lat="43.51009" lon="6.65475">
        <ele>87</ele>
        <time>2022-10-22T10:59:16Z</time>
      </trkpt>
      <trkpt lat="43.51043" lon="6.65417">
        <ele>99</ele>
        <time>2022-10-22T10:59:29Z</time>
      </trkpt>
      <trkpt lat="43.51191" lon="6.65441">
        <ele>102</ele>
        <time>2022-10-22T11:00:04Z</time>
      </trkpt>
      <trkpt lat="43.51247" lon="6.65572">
        <ele>100</ele>
        <time>2022-10-22T11:00:30Z</time>
      </trkpt>
      <trkpt lat="43.512" lon="6.65772">
        <ele>101</ele>
        <time>2022-10-22T11:01:05Z</time>
      </trkpt>
      <trkpt lat="43.51294" lon="6.65902">
        <ele>115</ele>
        <time>2022-10-22T11:01:36Z</time>
      </trkpt>
      <trkpt lat="43.51298" lon="6.66207">
        <ele>132</ele>
        <time>2022-10-22T11:02:28Z</time>
      </trkpt>
      <trkpt lat="43.51269" lon="6.66636">
        <ele>128</ele>
        <time>2022-10-22T11:03:41Z</time>
      </trkpt>
      <trkpt lat="43.51309" lon="6.66832">
        <ele>145</ele>
        <time>2022-10-22T11:04:15Z</time>
      </trkpt>
      <trkpt lat="43.51392" lon="6.66497">
        <ele>162</ele>
        <time>2022-10-22T11:05:15Z</time>
      </trkpt>
      <trkpt lat="43.51491" lon="6.66291">
        <ele>187</ele>
        <time>2022-10-22T11:05:57Z</time>
      </trkpt>
      <trkpt lat="43.51526" lon="6.66647">
        <ele>192</ele>
        <time>2022-10-22T11:06:58Z</time>
      </trkpt>
      <trkpt lat="43.5154" lon="6.66535">
        <ele>203</ele>
        <time>2022-10-22T11:07:17Z</time>
      </trkpt>
      <trkpt lat="43.51631" lon="6.66488">
        <ele>218</ele>
        <time>2022-10-22T11:07:40Z</time>
      </trkpt>
      <trkpt lat="43.51768" lon="6.66108">
        <ele>244</ele>
        <time>2022-10-22T11:08:52Z</time>
      </trkpt>
      <trkpt lat="43.51854" lon="6.66158">
        <ele>251</ele>
        <time>2022-10-22T11:09:14Z</time>
      </trkpt>
      <trkpt lat="43.5181" lon="6.66278">
        <ele>241</ele>
        <time>2022-10-22T11:09:36Z</time>
      </trkpt>
      <trkpt lat="43.51841" lon="6.66392">
        <ele>234</ele>
        <time>2022-10-22T11:09:57Z</time>
      </trkpt>
      <trkpt lat="43.51964" lon="6.66398">
        <ele>251</ele>
        <time>2022-10-22T11:10:26Z</time>
      </trkpt>
      <trkpt lat="43.51946" lon="6.66484">
        <ele>243</ele>
        <time>2022-10-22T11:10:41Z</time>
      </trkpt>
      <trkpt lat="43.51857" lon="6.66641">
        <ele>234</ele>
        <time>2022-10-22T11:11:15Z</time>
      </trkpt>
      <trkpt lat="43.51795" lon="6.66716">
        <ele>221</ele>
        <time>2022-10-22T11:11:34Z</time>
      </trkpt>
      <trkpt lat="43.51958" lon="6.66778">
        <ele>234</ele>
        <time>2022-10-22T11:12:13Z</time>
      </trkpt>
      <trkpt lat="43.52033" lon="6.66904">
        <ele>239</ele>
        <time>2022-10-22T11:12:41Z</time>
      </trkpt>
      <trkpt lat="43.51939" lon="6.67061">
        <ele>241</ele>
        <time>2022-10-22T11:13:16Z</time>
      </trkpt>
      <trkpt lat="43.52045" lon="6.66984">
        <ele>248</ele>
        <time>2022-10-22T11:13:44Z</time>
      </trkpt>
      <trkpt lat="43.52083" lon="6.67033">
        <ele>261</ele>
        <time>2022-10-22T11:13:56Z</time>
      </trkpt>
      <trkpt lat="43.52156" lon="6.6699">
        <ele>267</ele>
        <time>2022-10-22T11:14:14Z</time>
      </trkpt>
      <trkpt lat="43.52221" lon="6.66853">
        <ele>279</ele>
        <time>2022-10-22T11:14:42Z</time>
      </trkpt>
      <trkpt lat="43.52154" lon="6.6681">
        <ele>269</ele>
        <time>2022-10-22T11:14:59Z</time>
      </trkpt>
      <trkpt lat="43.52131" lon="6.6669">
        <ele>274</ele>
        <time>2022-10-22T11:15:20Z</time>
      </trkpt>
      <trkpt lat="43.52188" lon="6.66634">
        <ele>283</ele>
        <time>2022-10-22T11:15:37Z</time>
      </trkpt>
      <trkpt lat="43.52333" lon="6.66791">
        <ele>296</ele>
        <time>2022-10-22T11:16:20Z</time>
      </trkpt>
      <trkpt lat="43.5238" lon="6.66763">
        <ele>303</ele>
        <time>2022-10-22T11:16:32Z</time>
      </trkpt>
      <trkpt lat="43.52456" lon="6.66817">
        <ele>309</ele>
        <time>2022-10-22T11:16:52Z</time>
      </trkpt>
      <trkpt lat="43.52629" lon="6.66716">
        <ele>328</ele>
        <time>2022-10-22T11:17:35Z</time>
      </trkpt>
      <trkpt lat="43.52619" lon="6.66883">
        <ele>337</ele>
        <time>2022-10-22T11:18:04Z</time>
      </trkpt>
      <trkpt lat="43.5257" lon="6.6702">
        <ele>364</ele>
        <time>2022-10-22T11:18:30Z</time>
      </trkpt>
      <trkpt lat="43.5258" lon="6.67106">
        <ele>378</ele>
        <time>2022-10-22T11:18:44Z</time>
      </trkpt>
      <trkpt lat="43.52556" lon="6.67274">
        <ele>369</ele>
        <time>2022-10-22T11:19:13Z</time>
      </trkpt>
      <trkpt lat="43.52624" lon="6.67402">
        <ele>377</ele>
        <time>2022-10-22T11:19:40Z</time>
      </trkpt>
      <trkpt lat="43.52599" lon="6.67578">
        <ele>389</ele>
        <time>2022-10-22T11:20:11Z</time>
      </trkpt>
      <trkpt lat="43.52562" lon="6.67649">
        <ele>385</ele>
        <time>2022-10-22T11:20:25Z</time>
      </trkpt>
      <trkpt lat="43.52655" lon="6.67786">
        <ele>388</ele>
        <time>2022-10-22T11:20:57Z</time>
      </trkpt>
      <trkpt lat="43.52571" lon="6.67859">
        <ele>373</ele>
        <time>2022-10-22T11:21:20Z</time>
      </trkpt>
      <trkpt lat="43.52604" lon="6.6796">
        <ele>377</ele>
        <time>2022-10-22T11:21:39Z</time>
      </trkpt>
      <trkpt lat="43.5247" lon="6.6852">
        <ele>397</ele>
        <time>2022-10-22T11:23:19Z</time>
      </trkpt>
      <trkpt lat="43.52372" lon="6.68692">
        <ele>398</ele>
        <time>2022-10-22T11:23:56Z</time>
      </trkpt>
      <trkpt lat="43.52274" lon="6.68756">
        <ele>403</ele>
        <time>2022-10-22T11:24:21Z</time>
      </trkpt>
      <trkpt lat="43.52238" lon="6.68907">
        <ele>403</ele>
        <time>2022-10-22T11:24:48Z</time>
      </trkpt>
      <trkpt lat="43.521" lon="6.69128">
        <ele>379</ele>
        <time>2022-10-22T11:25:38Z</time>
      </trkpt>
      <trkpt lat="43.5186" lon="6.68773">
        <ele>352</ele>
        <time>2022-10-22T11:27:00Z</time>
      </trkpt>
      <trkpt lat="43.51849" lon="6.68632">
        <ele>338</ele>
        <time>2022-10-22T11:27:24Z</time>
      </trkpt>
      <trkpt lat="43.51845" lon="6.68293">
        <ele>310</ele>
        <time>2022-10-22T11:28:21Z</time>
      </trkpt>
      <trkpt lat="43.51835" lon="6.68246">
        <ele>305</ele>
        <time>2022-10-22T11:28:30Z</time>
      </trkpt>
      <trkpt lat="43.51776" lon="6.68289">
        <ele>290</ele>
        <time>2022-10-22T11:28:45Z</time>
      </trkpt>
      <trkpt lat="43.51631" lon="6.68565">
        <ele>259</ele>
        <time>2022-10-22T11:29:43Z</time>
      </trkpt>
      <trkpt lat="43.51645" lon="6.68645">
        <ele>268</ele>
        <time>2022-10-22T11:29:57Z</time>
      </trkpt>
      <trkpt lat="43.51591" lon="6.68776">
        <ele>252</ele>
        <time>2022-10-22T11:30:22Z</time>
      </trkpt>
      <trkpt lat="43.51583" lon="6.68958">
        <ele>258</ele>
        <time>2022-10-22T11:30:53Z</time>
      </trkpt>
      <trkpt lat="43.51706" lon="6.69194">
        <ele>273</ele>
        <time>2022-10-22T11:31:42Z</time>
      </trkpt>
      <trkpt lat="43.51932" lon="6.69331">
        <ele>309</ele>
        <time>2022-10-22T11:32:40Z</time>
      </trkpt>
      <trkpt lat="43.51938" lon="6.69655">
        <ele>326</ele>
        <time>2022-10-22T11:33:35Z</time>
      </trkpt>
      <trkpt lat="43.51824" lon="6.69685">
        <ele>327</ele>
        <time>2022-10-22T11:34:02Z</time>
      </trkpt>
      <trkpt lat="43.51723" lon="6.6963">
        <ele>300</ele>
        <time>2022-10-22T11:34:27Z</time>
      </trkpt>
      <trkpt lat="43.51602" lon="6.69698">
        <ele>279</ele>
        <time>2022-10-22T11:34:58Z</time>
      </trkpt>
      <trkpt lat="43.51608" lon="6.69833">
        <ele>277</ele>
        <time>2022-10-22T11:35:21Z</time>
      </trkpt>
      <trkpt lat="43.51689" lon="6.69919">
        <ele>291</ele>
        <time>2022-10-22T11:35:45Z</time>
      </trkpt>
      <trkpt lat="43.51672" lon="6.70033">
        <ele>280</ele>
        <time>2022-10-22T11:36:04Z</time>
      </trkpt>
      <trkpt lat="43.51554" lon="6.70145">
        <ele>268</ele>
        <time>2022-10-22T11:36:38Z</time>
      </trkpt>
      <trkpt lat="43.51642" lon="6.70303">
        <ele>288</ele>
        <time>2022-10-22T11:37:12Z</time>
      </trkpt>
      <trkpt lat="43.51627" lon="6.70387">
        <ele>290</ele>
        <time>2022-10-22T11:37:26Z</time>
      </trkpt>
      <trkpt lat="43.51532" lon="6.70413">
        <ele>267</ele>
        <time>2022-10-22T11:37:49Z</time>
      </trkpt>
      <trkpt lat="43.51499" lon="6.70501">
        <ele>269</ele>
        <time>2022-10-22T11:38:06Z</time>
      </trkpt>
      <trkpt lat="43.51529" lon="6.70683">
        <ele>274</ele>
        <time>2022-10-22T11:38:37Z</time>
      </trkpt>
      <trkpt lat="43.51345" lon="6.7079">
        <ele>243</ele>
        <time>2022-10-22T11:39:24Z</time>
      </trkpt>
      <trkpt lat="43.51294" lon="6.70636">
        <ele>229</ele>
        <time>2022-10-22T11:39:53Z</time>
      </trkpt>
      <trkpt lat="43.51328" lon="6.70576">
        <ele>218</ele>
        <time>2022-10-22T11:40:05Z</time>
      </trkpt>
      <trkpt lat="43.51278" lon="6.70366">
        <ele>200</ele>
        <time>2022-10-22T11:40:43Z</time>
      </trkpt>
      <trkpt lat="43.5116" lon="6.70134">
        <ele>170</ele>
        <time>2022-10-22T11:41:31Z</time>
      </trkpt>
      <trkpt lat="43.5106" lon="6.70018">
        <ele>148</ele>
        <time>2022-10-22T11:42:01Z</time>
      </trkpt>
      <trkpt lat="43.51098" lon="6.69924">
        <ele>150</ele>
        <time>2022-10-22T11:42:20Z</time>
      </trkpt>
      <trkpt lat="43.50897" lon="6.69868">
        <ele>138</ele>
        <time>2022-10-22T11:43:08Z</time>
      </trkpt>
      <trkpt lat="43.50749" lon="6.69793">
        <ele>144</ele>
        <time>2022-10-22T11:43:44Z</time>
      </trkpt>
      <trkpt lat="43.50698" lon="6.69651">
        <ele>137</ele>
        <time>2022-10-22T11:44:11Z</time>
      </trkpt>
      <trkpt lat="43.50506" lon="6.69241">
        <ele>113</ele>
        <time>2022-10-22T11:45:34Z</time>
      </trkpt>
      <trkpt lat="43.50481" lon="6.69125">
        <ele>104</ele>
        <time>2022-10-22T11:45:54Z</time>
      </trkpt>
      <trkpt lat="43.50411" lon="6.69095">
        <ele>93</ele>
        <time>2022-10-22T11:46:11Z</time>
      </trkpt>
      <trkpt lat="43.50343" lon="6.69155">
        <ele>88</ele>
        <time>2022-10-22T11:46:30Z</time>
      </trkpt>
      <trkpt lat="43.50407" lon="6.69297">
        <ele>95</ele>
        <time>2022-10-22T11:46:59Z</time>
      </trkpt>
      <trkpt lat="43.50361" lon="6.69361">
        <ele>92</ele>
        <time>2022-10-22T11:47:14Z</time>
      </trkpt>
      <trkpt lat="43.50365" lon="6.69486">
        <ele>98</ele>
        <time>2022-10-22T11:47:35Z</time>
      </trkpt>
      <trkpt lat="43.50259" lon="6.69533">
        <ele>84</ele>
        <time>2022-10-22T11:48:01Z</time>
      </trkpt>
      <trkpt lat="43.50248" lon="6.69625">
        <ele>82</ele>
        <time>2022-10-22T11:48:17Z</time>
      </trkpt>
      <trkpt lat="43.5005" lon="6.6969">
        <ele>75</ele>
        <time>2022-10-22T11:49:04Z</time>
      </trkpt>
      <trkpt lat="43.49947" lon="6.69748">
        <ele>70</ele>
        <time>2022-10-22T11:49:30Z</time>
      </trkpt>
      <trkpt lat="43.50119" lon="6.70044">
        <ele>79</ele>
        <time>2022-10-22T11:50:35Z</time>
      </trkpt>
      <trkpt lat="43.49867" lon="6.70093">
        <ele>70</ele>
        <time>2022-10-22T11:51:34Z</time>
      </trkpt>
      <trkpt lat="43.49722" lon="6.70027">
        <ele>68</ele>
        <time>2022-10-22T11:52:10Z</time>
      </trkpt>
      <trkpt lat="43.49607" lon="6.70097">
        <ele>65</ele>
        <time>2022-10-22T11:52:39Z</time>
      </trkpt>
      <trkpt lat="43.49449" lon="6.70132">
        <ele>59</ele>
        <time>2022-10-22T11:53:16Z</time>
      </trkpt>
      <trkpt lat="43.49334" lon="6.70203">
        <ele>57</ele>
        <time>2022-10-22T11:53:46Z</time>
      </trkpt>
      <trkpt lat="43.49287" lon="6.70286">
        <ele>56</ele>
        <time>2022-10-22T11:54:04Z</time>
      </trkpt>
      <trkpt lat="43.49261" lon="6.7031">
        <ele>55</ele>
        <time>2022-10-22T11:54:11Z</time>
      </trkpt>
      <trkpt lat="43.49239" lon="6.70391">
        <ele>53</ele>
        <time>2022-10-22T11:54:26Z</time>
      </trkpt>
      <trkpt lat="43.49138" lon="6.70398">
        <ele>52</ele>
        <time>2022-10-22T11:54:49Z</time>
      </trkpt>
      <trkpt lat="43.49004" lon="6.70578">
        <ele>50</ele>
        <time>2022-10-22T11:55:33Z</time>
      </trkpt>
      <trkpt lat="43.48876" lon="6.70563">
        <ele>48</ele>
        <time>2022-10-22T11:56:03Z</time>
      </trkpt>
      <trkpt lat="43.48845" lon="6.70642">
        <ele>52</ele>
        <time>2022-10-22T11:56:18Z</time>
      </trkpt>
      <trkpt lat="43.48895" lon="6.70707">
        <ele>53</ele>
        <time>2022-10-22T11:56:34Z</time>
      </trkpt>
      <trkpt lat="43.4897" lon="6.70733">
        <ele>53</ele>
        <time>2022-10-22T11:56:52Z</time>
      </trkpt>
      <trkpt lat="43.49032" lon="6.70902">
        <ele>62</ele>
        <time>2022-10-22T11:57:24Z</time>
      </trkpt>
      <trkpt lat="43.49066" lon="6.71035">
        <ele>67</ele>
        <time>2022-10-22T11:57:48Z</time>
      </trkpt>
      <trkpt lat="43.49057" lon="6.71138">
        <ele>69</ele>
        <time>2022-10-22T11:58:06Z</time>
      </trkpt>
    </trkseg>
  </trk>
</gpx>